Time,TemperatureF,DewpointF,PressureIn,WindDirection,WindDirectionDegrees,WindSpeedMPH,WindSpeedGustMPH,Humidity,HourlyPrecipIn,Conditions,Clouds,dailyrainin,SoftwareType,DateUTC
2013-10-17 00:00:00,55.9,50.2,30.06,SSW,202,0.0,0.0,81,0.00,,,0.00,VWS V14.01,2013-10-17 04:00:00,
2013-10-17 00:01:00,54.7,50.0,30.03,SSW,202,0.0,0.0,84,0.00,,OVC044,0.00,VWS V14.01,2013-10-17 04:01:00,
2013-10-17 00:06:00,54.5,49.8,30.03,SSW,202,0.0,0.0,84,0.00,,OVC044,0.00,VWS V14.01,2013-10-17 04:06:00,
2013-10-17 00:11:00,54.5,49.8,30.03,SSW,202,0.0,0.0,84,0.00,,OVC044,0.00,VWS V14.01,2013-10-17 04:11:00,
2013-10-17 00:16:00,54.5,49.8,30.03,SSW,202,0.0,0.0,84,0.00,,OVC044,0.00,VWS V14.01,2013-10-17 04:16:00,
2013-10-17 00:21:00,54.5,49.8,30.03,SSW,202,0.0,0.0,84,0.00,,OVC044,0.00,VWS V14.01,2013-10-17 04:21:00,
2013-10-17 00:26:00,54.3,49.6,30.03,SSW,202,0.0,0.0,84,0.00,,OVC044,0.00,VWS V14.01,2013-10-17 04:26:00,
2013-10-17 00:31:00,54.1,49.4,30.03,SSW,202,0.0,0.0,84,0.00,,OVC044,0.00,VWS V14.01,2013-10-17 04:31:00,
2013-10-17 00:36:00,54.1,49.4,30.03,SSW,202,0.0,0.0,84,0.00,,OVC044,0.00,VWS V14.01,2013-10-17 04:36:00,
2013-10-17 00:41:00,54.0,49.2,30.03,SSW,202,0.0,0.0,84,0.00,,OVC044,0.00,VWS V14.01,2013-10-17 04:41:00,
2013-10-17 00:46:00,53.8,49.1,30.03,SSW,202,0.0,0.0,84,0.00,,OVC044,0.00,VWS V14.01,2013-10-17 04:46:00,
2013-10-17 00:51:00,53.8,49.1,30.03,SSW,202,0.0,0.0,84,0.00,,OVC044,0.00,VWS V14.01,2013-10-17 04:51:00,
2013-10-17 00:56:00,53.8,49.4,30.03,SSW,202,0.0,0.0,85,0.00,,OVC044,0.00,VWS V14.01,2013-10-17 04:56:00,
2013-10-17 01:00:00,53.8,49.4,30.03,SSW,202,0.0,0.0,85,0.00,,OVC044,0.00,VWS V14.01,2013-10-17 05:00:00,
2013-10-17 01:01:00,54.0,49.6,30.03,SSW,202,0.0,0.0,85,0.00,,OVC044,0.00,VWS V14.01,2013-10-17 05:01:00,
2013-10-17 01:06:00,54.0,49.6,30.03,SSW,202,0.0,0.0,85,0.00,,OVC044,0.00,VWS V14.01,2013-10-17 05:06:00,
2013-10-17 01:11:00,54.0,49.6,30.03,SSW,202,0.0,0.0,85,0.00,,OVC044,0.00,VWS V14.01,2013-10-17 05:11:00,
2013-10-17 01:16:00,54.0,49.6,30.03,SSW,202,0.0,0.0,85,0.00,,OVC044,0.00,VWS V14.01,2013-10-17 05:16:00,
2013-10-17 01:21:00,54.0,49.6,30.00,SSW,202,0.0,0.0,85,0.00,,OVC044,0.00,VWS V14.01,2013-10-17 05:21:00,
2013-10-17 01:26:00,54.1,50.0,30.00,SSW,202,0.0,0.0,86,0.00,,OVC044,0.00,VWS V14.01,2013-10-17 05:26:00,
2013-10-17 01:31:00,54.3,50.5,30.00,SSW,202,0.0,0.0,87,0.00,,OVC044,0.00,VWS V14.01,2013-10-17 05:31:00,
2013-10-17 01:36:00,54.3,50.5,30.03,SSW,202,0.0,0.0,87,0.00,,OVC044,0.00,VWS V14.01,2013-10-17 05:36:00,
2013-10-17 01:41:00,54.5,50.7,30.03,SSW,202,0.0,0.0,87,0.00,,OVC044,0.00,VWS V14.01,2013-10-17 05:41:00,
2013-10-17 01:46:00,54.7,50.6,30.03,NNE,22,0.0,0.0,86,0.00,,OVC044,0.00,VWS V14.01,2013-10-17 05:46:00,
2013-10-17 01:51:00,54.7,50.0,30.03,NNW,338,0.0,2.9,84,0.00,,OVC044,0.00,VWS V14.01,2013-10-17 05:51:00,
2013-10-17 01:56:00,54.9,50.1,30.03,North,0,1.6,5.8,84,0.00,,OVC044,0.00,VWS V14.01,2013-10-17 05:56:00,
2013-10-17 02:00:00,54.9,49.8,30.03,NNW,338,1.3,5.8,83,0.00,,OVC044,0.00,VWS V14.01,2013-10-17 06:00:00,
2013-10-17 02:01:00,55.0,50.0,30.03,NNW,338,4.3,4.3,83,0.00,,OVC044,0.00,VWS V14.01,2013-10-17 06:01:00,
2013-10-17 02:06:00,55.0,49.0,30.03,NNW,338,3.8,4.3,80,0.00,,OVC044,0.00,VWS V14.01,2013-10-17 06:06:00,
2013-10-17 02:11:00,54.9,47.1,30.03,NNE,22,2.9,4.3,75,0.00,,OVC044,0.00,VWS V14.01,2013-10-17 06:11:00,
2013-10-17 02:16:00,54.9,45.3,30.03,NNE,22,6.5,6.5,70,0.00,,OVC044,0.00,VWS V14.01,2013-10-17 06:16:00,
2013-10-17 02:21:00,54.5,43.0,30.03,NNE,22,4.3,7.2,65,0.00,,OVC044,0.00,VWS V14.01,2013-10-17 06:21:00,
2013-10-17 02:26:00,54.3,42.4,30.03,NW,315,5.6,7.4,64,0.00,,OVC044,0.00,VWS V14.01,2013-10-17 06:26:00,
2013-10-17 02:31:00,54.3,42.8,30.03,North,0,2.2,7.4,65,0.00,,OVC044,0.00,VWS V14.01,2013-10-17 06:31:00,
2013-10-17 02:36:00,54.0,42.1,30.03,NNW,338,3.1,7.4,64,0.00,,OVC044,0.00,VWS V14.01,2013-10-17 06:36:00,
2013-10-17 02:41:00,53.8,40.2,30.03,NE,45,4.0,7.4,60,0.00,,OVC044,0.00,VWS V14.01,2013-10-17 06:41:00,
2013-10-17 02:46:00,53.6,40.9,30.03,North,0,2.7,7.4,62,0.00,,OVC044,0.00,VWS V14.01,2013-10-17 06:46:00,
2013-10-17 02:51:00,53.4,39.9,30.03,SSE,158,1.6,7.4,60,0.00,,OVC044,0.00,VWS V14.01,2013-10-17 06:51:00,
2013-10-17 02:56:00,53.4,40.7,30.03,NNE,22,3.4,7.4,62,0.00,,OVC044,0.00,VWS V14.01,2013-10-17 06:56:00,
2013-10-17 03:00:00,53.2,39.7,30.03,NNE,22,2.7,7.4,60,0.00,,OVC044,0.00,VWS V14.01,2013-10-17 07:00:00,
2013-10-17 03:01:00,53.2,40.2,30.03,NNW,338,0.0,3.1,61,0.00,,OVC044,0.00,VWS V14.01,2013-10-17 07:01:00,
2013-10-17 03:06:00,53.1,40.0,30.03,North,0,2.9,6.3,61,0.00,,OVC044,0.00,VWS V14.01,2013-10-17 07:06:00,
2013-10-17 03:11:00,53.1,40.0,30.03,NNW,338,2.5,4.7,61,0.00,,OVC044,0.00,VWS V14.01,2013-10-17 07:11:00,
2013-10-17 03:16:00,52.9,40.2,30.03,NNE,22,0.0,4.7,62,0.00,,OVC044,0.00,VWS V14.01,2013-10-17 07:16:00,
2013-10-17 03:21:00,52.9,40.2,30.00,NNE,22,1.1,4.9,62,0.00,,OVC044,0.00,VWS V14.01,2013-10-17 07:21:00,
2013-10-17 03:26:00,52.7,40.1,30.00,NNW,338,2.5,4.9,62,0.00,,OVC044,0.00,VWS V14.01,2013-10-17 07:26:00,
2013-10-17 03:31:00,52.7,39.6,30.00,North,0,0.0,4.9,61,0.00,,OVC044,0.00,VWS V14.01,2013-10-17 07:31:00,
2013-10-17 03:36:00,52.5,39.9,30.03,NNW,338,2.2,4.9,62,0.00,,OVC044,0.00,VWS V14.01,2013-10-17 07:36:00,
2013-10-17 03:41:00,52.5,39.5,30.03,NE,45,2.7,4.9,61,0.00,,OVC044,0.00,VWS V14.01,2013-10-17 07:41:00,
2013-10-17 03:46:00,52.3,39.3,30.03,NNW,338,2.2,4.9,61,0.00,,OVC044,0.00,VWS V14.01,2013-10-17 07:46:00,
2013-10-17 03:51:00,52.3,39.7,30.03,NNW,338,1.3,4.9,62,0.00,,OVC044,0.00,VWS V14.01,2013-10-17 07:51:00,
2013-10-17 03:56:00,52.2,39.5,30.03,NNW,338,1.6,4.9,62,0.00,,OVC044,0.00,VWS V14.01,2013-10-17 07:56:00,
2013-10-17 04:00:00,52.2,39.5,30.03,NE,45,0.0,4.9,62,0.00,,OVC044,0.00,VWS V14.01,2013-10-17 08:00:00,
2013-10-17 04:01:00,52.2,40.0,30.03,NNW,338,1.3,1.3,63,0.00,,OVC044,0.00,VWS V14.01,2013-10-17 08:01:00,
2013-10-17 04:06:00,52.0,39.8,30.03,North,0,0.0,2.0,63,0.00,,OVC044,0.00,VWS V14.01,2013-10-17 08:06:00,
2013-10-17 04:08:00,52.0,40.2,30.03,North,0,0.0,2.0,64,0.00,,OVC044,0.00,VWS V14.01,2013-10-17 08:08:00,
2013-10-17 04:13:00,52.0,40.2,30.03,North,0,0.0,2.0,64,0.00,,OVC044,0.00,VWS V14.01,2013-10-17 08:13:00,
2013-10-17 04:18:00,51.8,40.0,30.03,North,0,2.2,2.5,64,0.00,,OVC044,0.00,VWS V14.01,2013-10-17 08:18:00,
2013-10-17 04:23:00,51.8,40.0,30.03,NNW,338,2.0,3.1,64,0.00,,OVC044,0.00,VWS V14.01,2013-10-17 08:23:00,
2013-10-17 04:28:00,51.6,40.2,30.03,NNE,22,1.6,3.1,65,0.00,,OVC044,0.00,VWS V14.01,2013-10-17 08:28:00,
2013-10-17 04:33:00,51.6,40.2,30.03,North,0,0.0,3.1,65,0.00,,OVC044,0.00,VWS V14.01,2013-10-17 08:33:00,
2013-10-17 04:38:00,51.6,40.2,30.00,NNE,22,3.1,4.3,65,0.00,,OVC044,0.00,VWS V14.01,2013-10-17 08:38:00,
2013-10-17 04:43:00,51.6,40.7,30.00,NNW,338,0.0,4.3,66,0.00,,OVC044,0.00,VWS V14.01,2013-10-17 08:43:00,
2013-10-17 04:48:00,51.4,40.5,30.00,NNE,22,0.9,4.3,66,0.00,,OVC044,0.00,VWS V14.01,2013-10-17 08:48:00,
2013-10-17 04:53:00,51.4,40.5,30.03,North,0,0.0,4.3,66,0.00,,OVC044,0.00,VWS V14.01,2013-10-17 08:53:00,
2013-10-17 04:58:00,51.4,40.9,30.03,NNE,22,1.1,4.3,67,0.00,,OVC044,0.00,VWS V14.01,2013-10-17 08:58:00,
2013-10-17 05:00:00,51.4,40.9,30.03,NNE,22,0.0,4.3,67,0.00,,OVC044,0.00,VWS V14.01,2013-10-17 09:00:00,
2013-10-17 05:03:00,51.4,41.2,30.03,NNE,22,1.3,2.0,68,0.00,,OVC044,0.00,VWS V14.01,2013-10-17 09:03:00,
2013-10-17 05:08:00,51.4,40.9,30.03,NNW,338,1.3,4.0,67,0.00,,OVC044,0.00,VWS V14.01,2013-10-17 09:08:00,
2013-10-17 05:13:00,51.3,40.7,30.03,NNE,22,2.0,4.0,67,0.00,,OVC044,0.00,VWS V14.01,2013-10-17 09:13:00,
2013-10-17 05:18:00,51.3,41.1,30.03,NW,315,2.2,4.0,68,0.00,,OVC044,0.00,VWS V14.01,2013-10-17 09:18:00,
2013-10-17 05:23:00,51.3,40.7,30.00,WNW,292,2.0,4.0,67,0.00,,OVC044,0.00,VWS V14.01,2013-10-17 09:23:00,
2013-10-17 05:28:00,51.4,41.2,30.00,WNW,292,0.0,4.0,68,0.00,,OVC044,0.00,VWS V14.01,2013-10-17 09:28:00,
2013-10-17 05:33:00,51.4,41.6,30.00,North,0,0.0,4.0,69,0.00,,OVC044,0.00,VWS V14.01,2013-10-17 09:33:00,
2013-10-17 05:38:00,51.4,41.6,30.03,NNE,22,0.0,4.0,69,0.00,,OVC044,0.00,VWS V14.01,2013-10-17 09:38:00,
2013-10-17 05:43:00,51.4,41.6,30.03,North,0,0.0,4.0,69,0.00,,OVC044,0.00,VWS V14.01,2013-10-17 09:43:00,
2013-10-17 05:48:00,51.4,41.6,30.03,NNE,22,0.0,4.0,69,0.00,,OVC044,0.00,VWS V14.01,2013-10-17 09:48:00,
2013-10-17 05:53:00,51.4,41.6,30.03,ESE,112,0.0,4.0,69,0.00,,OVC044,0.00,VWS V14.01,2013-10-17 09:53:00,
2013-10-17 05:58:00,51.4,42.0,30.03,North,0,0.9,4.0,70,0.00,,OVC044,0.00,VWS V14.01,2013-10-17 09:58:00,
2013-10-17 06:00:00,51.4,42.0,30.03,North,0,0.0,4.0,70,0.00,,OVC044,0.00,VWS V14.01,2013-10-17 10:00:00,
2013-10-17 06:03:00,51.4,42.0,30.03,North,0,0.0,0.0,70,0.00,,OVC044,0.00,VWS V14.01,2013-10-17 10:03:00,
2013-10-17 06:08:00,51.4,41.6,30.00,NNW,338,0.0,0.0,69,0.00,,OVC044,0.00,VWS V14.01,2013-10-17 10:08:00,
2013-10-17 06:13:00,51.4,42.0,30.00,NNW,338,0.0,0.0,70,0.00,,OVC044,0.00,VWS V14.01,2013-10-17 10:13:00,
2013-10-17 06:18:00,51.4,42.4,30.00,NNW,338,0.0,0.0,71,0.00,,OVC044,0.00,VWS V14.01,2013-10-17 10:18:00,
2013-10-17 06:23:00,51.4,42.4,30.03,North,0,2.2,2.5,71,0.00,,OVC044,0.00,VWS V14.01,2013-10-17 10:23:00,
2013-10-17 06:28:00,51.4,42.0,30.03,WNW,292,0.0,2.5,70,0.00,,OVC044,0.00,VWS V14.01,2013-10-17 10:28:00,
2013-10-17 06:33:00,51.4,42.0,30.03,WNW,292,0.0,2.7,70,0.00,,OVC044,0.00,VWS V14.01,2013-10-17 10:33:00,
2013-10-17 06:38:00,51.4,42.0,30.03,WNW,292,0.0,2.7,70,0.00,,OVC044,0.00,VWS V14.01,2013-10-17 10:38:00,
2013-10-17 06:43:00,51.4,42.0,30.03,NNE,22,0.0,2.7,70,0.00,,OVC044,0.00,VWS V14.01,2013-10-17 10:43:00,
2013-10-17 06:48:00,51.6,42.2,30.03,NNE,22,0.0,2.7,70,0.00,,OVC044,0.00,VWS V14.01,2013-10-17 10:48:00,
2013-10-17 06:53:00,51.6,42.2,30.00,North,0,1.3,2.7,70,0.00,,OVC044,0.00,VWS V14.01,2013-10-17 10:53:00,
2013-10-17 06:58:00,51.6,42.2,30.00,ENE,68,1.3,2.9,70,0.00,,OVC044,0.00,VWS V14.01,2013-10-17 10:58:00,
2013-10-17 07:00:00,51.6,42.2,30.00,NNE,22,2.5,3.4,70,0.00,,OVC044,0.00,VWS V14.01,2013-10-17 11:00:00,
2013-10-17 07:03:00,51.6,41.8,30.00,NNE,22,3.6,3.8,69,0.00,,OVC044,0.00,VWS V14.01,2013-10-17 11:03:00,
2013-10-17 07:07:00,51.6,42.2,30.00,West,270,2.2,4.7,70,0.00,,OVC044,0.00,VWS V14.01,2013-10-17 11:07:00,
2013-10-17 07:12:00,51.6,41.8,30.00,NW,315,1.6,4.7,69,0.00,,OVC044,0.00,VWS V14.01,2013-10-17 11:12:00,
2013-10-17 07:17:00,51.4,41.6,30.00,North,0,2.5,4.7,69,0.00,,OVC044,0.00,VWS V14.01,2013-10-17 11:17:00,
2013-10-17 07:22:00,51.6,41.8,30.00,NNW,338,2.0,4.7,69,0.00,,OVC044,0.00,VWS V14.01,2013-10-17 11:22:00,
2013-10-17 07:27:00,51.4,41.2,30.00,North,0,1.6,4.7,68,0.00,,OVC044,0.00,VWS V14.01,2013-10-17 11:27:00,
2013-10-17 07:32:00,51.4,41.6,30.00,NNW,338,0.0,4.9,69,0.00,,OVC044,0.00,VWS V14.01,2013-10-17 11:32:00,
2013-10-17 07:37:00,51.4,41.6,30.03,NNW,338,0.0,4.9,69,0.00,,OVC044,0.00,VWS V14.01,2013-10-17 11:37:00,
2013-10-17 07:42:00,51.6,41.4,30.03,ENE,68,1.3,4.9,68,0.00,,OVC044,0.00,VWS V14.01,2013-10-17 11:42:00,
2013-10-17 07:47:00,51.6,41.4,30.03,NNW,338,2.2,4.9,68,0.00,,OVC044,0.00,VWS V14.01,2013-10-17 11:47:00,
2013-10-17 07:52:00,51.6,41.4,30.03,North,0,1.3,4.9,68,0.00,,OVC044,0.00,VWS V14.01,2013-10-17 11:52:00,
2013-10-17 07:57:00,51.6,41.4,30.03,North,0,3.4,4.9,68,0.00,,OVC044,0.00,VWS V14.01,2013-10-17 11:57:00,
2013-10-17 08:00:00,51.6,41.0,30.03,North,0,3.4,4.9,67,0.00,,OVC044,0.00,VWS V14.01,2013-10-17 12:00:00,
2013-10-17 08:07:00,51.8,41.2,30.03,NNW,338,0.0,0.0,67,0.00,,OVC044,0.00,VWS V14.01,2013-10-17 12:07:00,
2013-10-17 08:12:00,51.6,41.4,30.03,North,0,1.6,3.4,68,0.00,,OVC044,0.00,VWS V14.01,2013-10-17 12:12:00,
2013-10-17 08:17:00,52.0,41.4,30.03,North,0,0.0,0.0,67,0.00,,OVC044,0.00,VWS V14.01,2013-10-17 12:17:00,
2013-10-17 08:22:00,52.2,41.5,30.03,North,0,0.0,0.0,67,0.00,,OVC044,0.00,VWS V14.01,2013-10-17 12:22:00,
2013-10-17 08:27:00,52.2,41.5,30.03,SW,225,0.0,0.0,67,0.00,,OVC044,0.00,VWS V14.01,2013-10-17 12:27:00,
2013-10-17 08:32:00,52.3,42.1,30.03,SW,225,0.0,0.0,68,0.00,,OVC044,0.00,VWS V14.01,2013-10-17 12:32:00,
2013-10-17 08:37:00,52.5,42.3,30.03,WNW,292,0.0,0.0,68,0.00,,OVC044,0.00,VWS V14.01,2013-10-17 12:37:00,
2013-10-17 08:42:00,52.5,41.9,30.03,NNE,22,0.0,0.0,67,0.00,,OVC044,0.00,VWS V14.01,2013-10-17 12:42:00,
2013-10-17 08:47:00,52.7,42.5,30.03,ESE,112,0.0,0.0,68,0.00,,OVC044,0.00,VWS V14.01,2013-10-17 12:47:00,
2013-10-17 08:52:00,52.7,42.1,30.03,ESE,112,0.0,0.0,67,0.00,,OVC044,0.00,VWS V14.01,2013-10-17 12:52:00,
2013-10-17 08:57:00,52.7,42.1,30.03,WNW,292,0.0,0.0,67,0.00,,OVC044,0.00,VWS V14.01,2013-10-17 12:57:00,
2013-10-17 09:00:00,52.7,42.1,30.03,NE,45,0.0,0.0,67,0.00,,OVC044,0.00,VWS V14.01,2013-10-17 13:00:00,
2013-10-17 09:02:00,52.7,41.7,30.03,NNW,338,2.2,2.9,66,0.00,,OVC044,0.00,VWS V14.01,2013-10-17 13:02:00,
2013-10-17 09:07:00,52.5,41.5,30.00,NNW,338,2.0,5.8,66,0.00,,OVC044,0.00,VWS V14.01,2013-10-17 13:07:00,
2013-10-17 09:12:00,52.3,41.7,30.00,North,0,1.6,5.8,67,0.00,,OVC044,0.00,VWS V14.01,2013-10-17 13:12:00,
2013-10-17 09:17:00,52.3,42.1,30.00,NW,315,0.0,5.8,68,0.00,,OVC044,0.00,VWS V14.01,2013-10-17 13:17:00,
2013-10-17 09:22:00,52.2,41.9,30.03,WNW,292,1.1,5.8,68,0.00,,OVC044,0.00,VWS V14.01,2013-10-17 13:22:00,
2013-10-17 09:27:00,52.2,42.3,30.03,SSW,202,1.1,5.8,69,0.00,,OVC044,0.00,VWS V14.01,2013-10-17 13:27:00,
2013-10-17 09:32:00,52.2,42.3,30.03,NW,315,0.0,5.8,69,0.00,,OVC044,0.00,VWS V14.01,2013-10-17 13:32:00,
2013-10-17 09:37:00,52.2,42.7,30.03,NNE,22,0.0,5.8,70,0.00,,OVC044,0.00,VWS V14.01,2013-10-17 13:37:00,
2013-10-17 09:42:00,52.3,43.2,30.03,SSE,158,0.0,5.8,71,0.00,,OVC044,0.00,VWS V14.01,2013-10-17 13:42:00,
2013-10-17 09:47:00,52.3,43.2,30.03,WNW,292,2.2,5.8,71,0.00,,OVC044,0.00,VWS V14.01,2013-10-17 13:47:00,
2013-10-17 09:52:00,52.5,43.4,30.06,NNE,22,2.2,5.8,71,0.00,,OVC044,0.00,VWS V14.01,2013-10-17 13:52:00,
2013-10-17 09:57:00,52.5,43.4,30.06,North,0,0.0,5.8,71,0.00,,OVC044,0.00,VWS V14.01,2013-10-17 13:57:00,
2013-10-17 10:00:00,52.7,43.9,30.06,North,0,0.0,5.8,72,0.00,,OVC044,0.00,VWS V14.01,2013-10-17 14:00:00,
2013-10-17 10:02:00,52.9,43.8,30.06,North,0,0.0,0.0,71,0.00,,OVC044,0.00,VWS V14.01,2013-10-17 14:02:00,
2013-10-17 10:07:00,52.7,43.6,30.06,NE,45,0.0,2.0,71,0.00,,OVC044,0.00,VWS V14.01,2013-10-17 14:07:00,
2013-10-17 10:12:00,52.5,43.0,30.06,NNE,22,2.2,2.7,70,0.00,,OVC044,0.00,VWS V14.01,2013-10-17 14:12:00,
2013-10-17 10:17:00,52.2,43.4,30.06,NW,315,0.0,2.7,72,0.00,,OVC044,0.00,VWS V14.01,2013-10-17 14:17:00,
2013-10-17 10:22:00,52.0,43.6,30.03,NNE,22,0.0,2.7,73,0.00,,OVC044,0.00,VWS V14.01,2013-10-17 14:22:00,
2013-10-17 10:27:00,52.2,43.8,30.03,NNW,338,0.0,2.7,73,0.00,,OVC044,0.00,VWS V14.01,2013-10-17 14:27:00,
2013-10-17 10:32:00,52.2,44.5,30.03,North,0,0.0,2.7,75,0.00,,OVC044,0.00,VWS V14.01,2013-10-17 14:32:00,
2013-10-17 10:37:00,52.2,44.8,30.06,North,0,0.0,2.7,76,0.05,,OVC044,0.05,VWS V14.01,2013-10-17 14:37:00,
2013-10-17 10:42:00,52.3,46.0,30.06,North,0,0.0,2.7,79,0.05,,OVC044,0.05,VWS V14.01,2013-10-17 14:42:00,
2013-10-17 10:47:00,52.5,45.5,30.06,NNW,338,0.0,2.7,77,0.05,,OVC044,0.05,VWS V14.01,2013-10-17 14:47:00,
2013-10-17 10:52:00,52.5,44.8,30.03,NNE,22,0.0,2.7,75,0.05,,OVC044,0.05,VWS V14.01,2013-10-17 14:52:00,
2013-10-17 10:57:00,52.7,45.7,30.03,NNE,22,0.0,2.7,77,0.05,,OVC044,0.05,VWS V14.01,2013-10-17 14:57:00,
2013-10-17 11:00:00,52.9,45.5,30.03,ENE,68,0.0,2.7,76,0.05,,OVC044,0.05,VWS V14.01,2013-10-17 15:00:00,
2013-10-17 11:02:00,53.1,45.7,30.03,ESE,112,0.0,0.0,76,0.05,,OVC044,0.05,VWS V14.01,2013-10-17 15:02:00,
2013-10-17 11:07:00,53.2,46.6,30.03,SSW,202,0.0,0.0,78,0.05,,OVC044,0.05,VWS V14.01,2013-10-17 15:07:00,
2013-10-17 11:12:00,53.6,46.9,30.03,ESE,112,0.0,0.0,78,0.05,,OVC044,0.05,VWS V14.01,2013-10-17 15:12:00,
2013-10-17 11:17:00,53.8,47.4,30.03,SE,135,0.0,0.0,79,0.05,,OVC044,0.05,VWS V14.01,2013-10-17 15:17:00,
2013-10-17 11:22:00,54.0,47.6,30.00,SSW,202,0.0,0.0,79,0.05,,OVC044,0.05,VWS V14.01,2013-10-17 15:22:00,
2013-10-17 11:27:00,54.3,48.3,30.00,South,180,0.0,3.4,80,0.05,,OVC044,0.05,VWS V14.01,2013-10-17 15:27:00,
2013-10-17 11:32:00,54.7,48.6,30.00,SSW,202,1.6,3.4,80,0.05,,OVC044,0.05,VWS V14.01,2013-10-17 15:32:00,
2013-10-17 11:37:00,54.9,48.5,30.00,SSW,202,2.0,3.4,79,0.05,,OVC044,0.05,VWS V14.01,2013-10-17 15:37:00,
2013-10-17 11:42:00,55.0,48.0,30.00,SE,135,0.0,3.4,77,0.05,,OVC044,0.05,VWS V14.01,2013-10-17 15:42:00,
2013-10-17 11:47:00,55.4,48.0,30.00,SSW,202,1.1,3.4,76,0.05,,OVC044,0.05,VWS V14.01,2013-10-17 15:47:00,
2013-10-17 11:52:00,55.4,47.6,30.03,SSW,202,0.0,3.4,75,0.05,,OVC044,0.05,VWS V14.01,2013-10-17 15:52:00,
2013-10-17 11:57:00,55.6,47.4,30.03,SSE,158,0.0,3.4,74,0.05,,OVC044,0.05,VWS V14.01,2013-10-17 15:57:00,
2013-10-17 12:00:00,55.8,47.6,30.03,SSE,158,0.0,3.4,74,0.05,,OVC044,0.05,VWS V14.01,2013-10-17 16:00:00,
2013-10-17 12:02:00,55.9,48.1,30.03,South,180,0.0,1.6,75,0.00,,OVC044,0.05,VWS V14.01,2013-10-17 16:02:00,
2013-10-17 12:07:00,55.9,48.1,30.03,SSW,202,2.0,3.4,75,0.00,,OVC044,0.05,VWS V14.01,2013-10-17 16:07:00,
2013-10-17 12:12:00,56.1,47.6,30.03,SE,135,2.7,3.4,73,0.00,,OVC044,0.05,VWS V14.01,2013-10-17 16:12:00,
2013-10-17 12:17:00,56.1,47.6,30.03,SW,225,1.3,3.4,73,0.00,,OVC044,0.05,VWS V14.01,2013-10-17 16:17:00,
2013-10-17 12:22:00,56.3,47.4,30.00,SSW,202,0.0,3.4,72,0.00,,OVC044,0.05,VWS V14.01,2013-10-17 16:22:00,
2013-10-17 12:27:00,56.7,48.1,30.00,SSW,202,2.0,3.4,73,0.00,,OVC044,0.05,VWS V14.01,2013-10-17 16:27:00,
2013-10-17 12:32:00,57.0,48.1,30.00,NE,45,1.1,3.4,72,0.00,,OVC044,0.05,VWS V14.01,2013-10-17 16:32:00,
2013-10-17 12:37:00,57.4,48.1,30.03,WSW,248,0.0,3.4,71,0.00,,OVC044,0.05,VWS V14.01,2013-10-17 16:37:00,
2013-10-17 12:42:00,57.9,48.2,30.03,WNW,292,2.2,3.4,70,0.00,,OVC044,0.05,VWS V14.01,2013-10-17 16:42:00,
2013-10-17 12:47:00,58.1,48.4,30.03,South,180,1.3,3.4,70,0.00,,OVC044,0.05,VWS V14.01,2013-10-17 16:47:00,
2013-10-17 12:52:00,58.3,48.2,30.03,SW,225,0.0,3.4,69,0.00,,OVC044,0.05,VWS V14.01,2013-10-17 16:52:00,
2013-10-17 12:57:00,58.1,47.2,30.03,SW,225,1.1,3.4,67,0.00,,OVC044,0.05,VWS V14.01,2013-10-17 16:57:00,
2013-10-17 13:00:00,58.1,47.2,30.03,NNW,338,0.0,3.4,67,0.00,,OVC044,0.05,VWS V14.01,2013-10-17 17:00:00,
2013-10-17 13:02:00,58.3,47.4,30.03,SSW,202,2.0,2.0,67,0.00,,OVC044,0.05,VWS V14.01,2013-10-17 17:02:00,
2013-10-17 13:07:00,58.5,48.0,30.03,SW,225,1.6,2.5,68,0.00,,OVC044,0.05,VWS V14.01,2013-10-17 17:07:00,
2013-10-17 13:12:00,58.8,47.9,30.03,SW,225,1.1,2.5,67,0.00,,OVC044,0.05,VWS V14.01,2013-10-17 17:12:00,
2013-10-17 13:17:00,58.8,47.9,30.03,WSW,248,0.0,2.5,67,0.00,,OVC044,0.05,VWS V14.01,2013-10-17 17:17:00,
2013-10-17 13:22:00,58.8,47.5,30.03,SW,225,2.0,2.7,66,0.00,,OVC044,0.05,VWS V14.01,2013-10-17 17:22:00,
2013-10-17 13:27:00,59.2,46.2,30.03,SSE,158,0.9,2.9,62,0.00,,OVC044,0.05,VWS V14.01,2013-10-17 17:27:00,
2013-10-17 13:32:00,59.9,46.9,30.03,WSW,248,0.0,3.4,62,0.00,,OVC044,0.05,VWS V14.01,2013-10-17 17:32:00,
2013-10-17 13:37:00,60.3,44.5,30.03,SSW,202,0.0,3.4,56,0.00,,OVC044,0.05,VWS V14.01,2013-10-17 17:37:00,
2013-10-17 13:42:00,60.1,42.9,30.03,NNW,338,4.7,5.4,53,0.00,,OVC044,0.05,VWS V14.01,2013-10-17 17:42:00,
2013-10-17 13:47:00,59.7,42.1,30.03,WNW,292,2.9,5.4,52,0.00,,OVC044,0.05,VWS V14.01,2013-10-17 17:47:00,
2013-10-17 13:52:00,59.7,43.1,30.03,NW,315,1.3,5.4,54,0.00,,OVC044,0.05,VWS V14.01,2013-10-17 17:52:00,
2013-10-17 13:57:00,59.5,42.9,30.03,WSW,248,0.0,5.4,54,0.00,,OVC044,0.05,VWS V14.01,2013-10-17 17:57:00,
2013-10-17 14:00:00,59.7,43.1,30.03,WNW,292,1.1,5.4,54,0.00,,OVC044,0.05,VWS V14.01,2013-10-17 18:00:00,
2013-10-17 14:02:00,59.9,42.7,30.03,WNW,292,3.1,3.1,53,0.00,,OVC044,0.05,VWS V14.01,2013-10-17 18:02:00,
2013-10-17 14:07:00,60.1,39.8,30.03,WNW,292,2.0,8.1,47,0.00,,OVC044,0.05,VWS V14.01,2013-10-17 18:07:00,
2013-10-17 14:12:00,60.4,41.2,30.03,ESE,112,0.0,8.1,49,0.00,,OVC044,0.05,VWS V14.01,2013-10-17 18:12:00,
2013-10-17 14:17:00,61.0,41.2,30.03,ENE,68,0.9,8.1,48,0.00,,OVC044,0.05,VWS V14.01,2013-10-17 18:17:00,
2013-10-17 14:22:00,61.0,40.6,30.03,NE,45,0.9,8.1,47,0.00,,OVC044,0.05,VWS V14.01,2013-10-17 18:22:00,
2013-10-17 14:27:00,61.0,40.6,30.03,South,180,2.7,8.1,47,0.00,,OVC044,0.05,VWS V14.01,2013-10-17 18:27:00,
2013-10-17 14:32:00,61.0,40.1,30.03,WSW,248,3.1,8.1,46,0.00,,OVC044,0.05,VWS V14.01,2013-10-17 18:32:00,
2013-10-17 14:37:00,60.8,39.9,30.03,NNE,22,0.0,8.1,46,0.00,,OVC044,0.05,VWS V14.01,2013-10-17 18:37:00,
2013-10-17 14:42:00,60.6,39.8,30.03,ESE,112,0.0,8.1,46,0.00,,OVC044,0.05,VWS V14.01,2013-10-17 18:42:00,
2013-10-17 14:47:00,60.4,39.0,30.03,ESE,112,1.1,8.1,45,0.00,,OVC044,0.05,VWS V14.01,2013-10-17 18:47:00,
2013-10-17 14:52:00,60.1,38.7,30.03,SSE,158,1.3,8.1,45,0.00,,OVC044,0.05,VWS V14.01,2013-10-17 18:52:00,
2013-10-17 14:57:00,60.3,39.4,30.03,NE,45,2.0,8.1,46,0.00,,OVC044,0.05,VWS V14.01,2013-10-17 18:57:00,
2013-10-17 15:00:00,60.3,39.4,30.03,NW,315,1.6,8.1,46,0.00,,OVC044,0.05,VWS V14.01,2013-10-17 19:00:00,
2013-10-17 15:02:00,60.1,39.2,30.03,NE,45,0.9,3.1,46,0.00,,OVC044,0.05,VWS V14.01,2013-10-17 19:02:00,
2013-10-17 15:07:00,60.1,38.7,30.03,SSW,202,1.3,3.1,45,0.00,,OVC044,0.05,VWS V14.01,2013-10-17 19:07:00,
2013-10-17 15:12:00,60.4,39.6,30.03,NNE,22,0.0,3.6,46,0.00,,OVC044,0.05,VWS V14.01,2013-10-17 19:12:00,
2013-10-17 15:17:00,60.4,39.6,30.03,WNW,292,4.3,7.6,46,0.00,,OVC044,0.05,VWS V14.01,2013-10-17 19:17:00,
2013-10-17 15:22:00,60.1,38.7,30.03,South,180,0.0,7.6,45,0.00,,OVC044,0.05,VWS V14.01,2013-10-17 19:22:00,
2013-10-17 15:27:00,59.7,37.2,30.03,NE,45,1.6,7.6,43,0.00,,OVC044,0.05,VWS V14.01,2013-10-17 19:27:00,
2013-10-17 15:31:00,59.5,38.2,30.03,West,270,0.0,7.6,45,0.00,,OVC044,0.05,VWS V14.01,2013-10-17 19:31:00,
2013-10-17 15:36:00,59.7,38.9,30.03,ESE,112,0.0,7.6,46,0.00,,OVC044,0.05,VWS V14.01,2013-10-17 19:36:00,
2013-10-17 15:41:00,59.7,38.4,30.03,SW,225,2.2,7.6,45,0.00,,OVC044,0.05,VWS V14.01,2013-10-17 19:41:00,
2013-10-17 15:46:00,60.1,39.2,30.03,ENE,68,2.9,7.6,46,0.00,,OVC044,0.05,VWS V14.01,2013-10-17 19:46:00,
2013-10-17 15:51:00,60.1,38.1,30.03,WSW,248,1.3,7.6,44,0.00,,OVC044,0.05,VWS V14.01,2013-10-17 19:51:00,
2013-10-17 15:56:00,60.3,38.3,30.03,WSW,248,1.1,7.6,44,0.00,,OVC044,0.05,VWS V14.01,2013-10-17 19:56:00,
2013-10-17 16:00:00,60.3,38.3,30.03,WSW,248,1.6,7.6,44,0.00,,OVC044,0.05,VWS V14.01,2013-10-17 20:00:00,
2013-10-17 16:01:00,60.3,38.8,30.03,WSW,248,1.1,2.2,45,0.00,,OVC044,0.05,VWS V14.01,2013-10-17 20:01:00,
2013-10-17 16:06:00,60.4,39.0,30.00,WNW,292,1.6,2.2,45,0.00,,OVC044,0.05,VWS V14.01,2013-10-17 20:06:00,
2013-10-17 16:11:00,60.4,39.0,30.00,SSW,202,1.3,3.6,45,0.00,,OVC044,0.05,VWS V14.01,2013-10-17 20:11:00,
2013-10-17 16:16:00,61.0,38.9,30.00,NNE,22,1.3,4.3,44,0.00,,OVC044,0.05,VWS V14.01,2013-10-17 20:16:00,
2013-10-17 16:21:00,61.2,37.9,30.03,WSW,248,2.5,4.3,42,0.00,,OVC044,0.05,VWS V14.01,2013-10-17 20:21:00,
2013-10-17 16:26:00,61.5,37.6,30.03,NNW,338,1.1,4.3,41,0.00,,OVC044,0.05,VWS V14.01,2013-10-17 20:26:00,
2013-10-17 16:31:00,61.2,35.4,30.03,WSW,248,1.6,4.3,38,0.00,,OVC044,0.05,VWS V14.01,2013-10-17 20:31:00,
2013-10-17 16:36:00,61.2,36.7,30.03,WNW,292,0.0,4.3,40,0.00,,OVC044,0.05,VWS V14.01,2013-10-17 20:36:00,
2013-10-17 16:41:00,61.0,36.5,30.03,WNW,292,0.0,4.3,40,0.00,,OVC044,0.05,VWS V14.01,2013-10-17 20:41:00,
2013-10-17 16:46:00,60.6,36.8,30.03,SW,225,1.3,4.3,41,0.00,,OVC044,0.05,VWS V14.01,2013-10-17 20:46:00,
2013-10-17 16:51:00,60.6,36.8,30.00,SSE,158,0.0,4.3,41,0.00,,OVC044,0.05,VWS V14.01,2013-10-17 20:51:00,
2013-10-17 16:56:00,60.6,36.2,30.00,SSW,202,1.6,4.3,40,0.00,,OVC044,0.05,VWS V14.01,2013-10-17 20:56:00,
2013-10-17 17:00:00,60.3,38.3,30.03,WSW,248,1.6,7.6,44,0.00,,,0.05,VWS V14.01,2013-10-17 21:00:00,
2013-10-17 17:01:00,60.6,36.8,30.00,WNW,292,0.0,4.3,41,0.00,,OVC044,0.05,VWS V14.01,2013-10-17 21:01:00,
2013-10-17 17:06:00,60.4,36.7,30.00,NNE,22,2.5,4.3,41,0.00,,OVC044,0.05,VWS V14.01,2013-10-17 21:06:00,
2013-10-17 17:11:00,60.4,37.3,30.00,NNW,338,0.0,4.3,42,0.00,,OVC044,0.05,VWS V14.01,2013-10-17 21:11:00,
2013-10-17 17:16:00,60.3,37.7,30.00,ENE,68,0.9,4.3,43,0.00,,OVC044,0.05,VWS V14.01,2013-10-17 21:16:00,
2013-10-17 17:21:00,60.1,36.3,30.03,WSW,248,1.1,4.3,41,0.00,,OVC044,0.05,VWS V14.01,2013-10-17 21:21:00,
2013-10-17 17:26:00,60.1,36.9,30.03,ESE,112,1.1,4.3,42,0.00,,OVC044,0.05,VWS V14.01,2013-10-17 21:26:00,
2013-10-17 17:31:00,59.9,35.5,30.03,North,0,1.6,4.3,40,0.00,,OVC044,0.05,VWS V14.01,2013-10-17 21:31:00,
2013-10-17 17:36:00,59.9,36.8,30.03,SSE,158,0.0,4.3,42,0.00,,OVC044,0.05,VWS V14.01,2013-10-17 21:36:00,
2013-10-17 17:41:00,59.9,37.4,30.03,NNE,22,2.0,4.3,43,0.00,,OVC044,0.05,VWS V14.01,2013-10-17 21:41:00,
2013-10-17 17:46:00,59.9,36.8,30.03,NNW,338,0.0,5.6,42,0.00,,OVC044,0.05,VWS V14.01,2013-10-17 21:46:00,
2013-10-17 17:51:00,59.9,36.8,30.03,East,90,0.0,5.6,42,0.00,,OVC044,0.05,VWS V14.01,2013-10-17 21:51:00,
2013-10-17 17:56:00,59.9,36.8,30.03,WSW,248,2.0,5.6,42,0.00,,OVC044,0.05,VWS V14.01,2013-10-17 21:56:00,
2013-10-17 18:00:00,59.9,36.8,30.03,NNW,338,0.0,5.6,42,0.00,,OVC044,0.05,VWS V14.01,2013-10-17 22:00:00,
2013-10-17 18:01:00,59.9,36.8,30.03,NW,315,2.9,2.9,42,0.00,,OVC044,0.05,VWS V14.01,2013-10-17 22:01:00,
2013-10-17 18:06:00,59.9,37.4,30.06,NE,45,2.5,2.9,43,0.00,,OVC044,0.05,VWS V14.01,2013-10-17 22:06:00,
2013-10-17 18:11:00,59.7,36.6,30.06,NNE,22,0.0,3.4,42,0.00,,OVC044,0.05,VWS V14.01,2013-10-17 22:11:00,
2013-10-17 18:16:00,59.5,37.6,30.06,SW,225,0.0,3.4,44,0.00,,OVC044,0.05,VWS V14.01,2013-10-17 22:16:00,
2013-10-17 18:21:00,59.4,36.3,30.03,South,180,0.0,4.0,42,0.00,,OVC044,0.05,VWS V14.01,2013-10-17 22:21:00,
2013-10-17 18:26:00,59.2,37.3,30.03,NNE,22,0.0,4.0,44,0.00,,OVC044,0.05,VWS V14.01,2013-10-17 22:26:00,
2013-10-17 18:31:00,59.0,37.7,30.03,ESE,112,0.0,4.0,45,0.00,,OVC044,0.05,VWS V14.01,2013-10-17 22:31:00,
2013-10-17 18:36:00,58.6,37.9,30.03,West,270,1.3,4.0,46,0.00,,OVC044,0.05,VWS V14.01,2013-10-17 22:36:00,
2013-10-17 18:41:00,58.3,37.6,30.03,WNW,292,0.9,4.0,46,0.00,,OVC044,0.05,VWS V14.01,2013-10-17 22:41:00,
2013-10-17 18:46:00,58.1,37.5,30.03,WSW,248,1.3,4.0,46,0.00,,OVC044,0.05,VWS V14.01,2013-10-17 22:46:00,
2013-10-17 18:51:00,57.9,37.3,30.03,South,180,1.3,4.3,46,0.00,,OVC044,0.05,VWS V14.01,2013-10-17 22:51:00,
2013-10-17 18:56:00,57.7,37.1,30.03,ESE,112,1.6,4.3,46,0.00,,OVC044,0.05,VWS V14.01,2013-10-17 22:56:00,
2013-10-17 19:00:00,57.6,37.0,30.03,ESE,112,0.0,4.3,46,0.00,,OVC044,0.05,VWS V14.01,2013-10-17 23:00:00,
2013-10-17 19:01:00,57.6,37.0,30.03,North,0,0.0,2.5,46,0.00,,OVC044,0.05,VWS V14.01,2013-10-17 23:01:00,
2013-10-17 19:06:00,57.2,37.2,30.03,North,0,0.0,2.5,47,0.00,,OVC044,0.05,VWS V14.01,2013-10-17 23:06:00,
2013-10-17 19:11:00,56.8,37.4,30.03,North,0,0.0,2.5,48,0.00,,OVC044,0.05,VWS V14.01,2013-10-17 23:11:00,
2013-10-17 19:15:00,56.7,37.7,30.03,North,0,0.0,2.5,49,0.00,,OVC044,0.05,VWS V14.01,2013-10-17 23:15:00,
2013-10-17 19:20:00,56.3,37.4,30.03,North,0,0.0,2.5,49,0.00,,OVC044,0.05,VWS V14.01,2013-10-17 23:20:00,
2013-10-17 19:25:00,56.3,37.9,30.03,North,0,0.0,2.5,50,0.00,,OVC044,0.05,VWS V14.01,2013-10-17 23:25:00,
2013-10-17 19:30:00,56.1,37.8,30.03,North,0,0.0,2.5,50,0.00,,OVC044,0.05,VWS V14.01,2013-10-17 23:30:00,
2013-10-17 19:35:00,55.9,38.6,30.03,North,0,0.0,2.5,52,0.00,,OVC044,0.05,VWS V14.01,2013-10-17 23:35:00,
2013-10-17 19:40:00,55.4,38.6,30.03,North,0,0.0,2.5,53,0.00,,OVC044,0.05,VWS V14.01,2013-10-17 23:40:00,
2013-10-17 19:45:00,55.4,38.6,30.03,North,0,0.0,2.5,53,0.00,,OVC044,0.05,VWS V14.01,2013-10-17 23:45:00,
2013-10-17 19:50:00,55.0,39.2,30.03,North,0,0.0,2.5,55,0.00,,OVC044,0.05,VWS V14.01,2013-10-17 23:50:00,
2013-10-17 19:55:00,54.9,39.5,30.03,North,0,0.0,2.5,56,0.00,,OVC044,0.05,VWS V14.01,2013-10-17 23:55:00,
2013-10-17 20:00:00,54.9,39.9,30.03,North,0,0.0,0.0,57,0.00,,OVC044,0.05,VWS V14.01,2013-10-18 00:00:00,
2013-10-17 20:05:00,54.7,40.2,30.03,North,0,0.0,0.0,58,0.00,,OVC044,0.05,VWS V14.01,2013-10-18 00:05:00,
2013-10-17 20:10:00,54.3,39.9,30.03,North,0,0.0,0.0,58,0.00,,OVC044,0.05,VWS V14.01,2013-10-18 00:10:00,
2013-10-17 20:15:00,54.3,40.3,30.03,North,0,0.0,0.0,59,0.00,,OVC044,0.05,VWS V14.01,2013-10-18 00:15:00,
2013-10-17 20:20:00,54.1,40.1,30.06,North,0,0.0,0.0,59,0.00,,OVC044,0.05,VWS V14.01,2013-10-18 00:20:00,
2013-10-17 20:25:00,54.0,40.8,30.06,North,0,0.0,0.0,61,0.00,,OVC044,0.05,VWS V14.01,2013-10-18 00:25:00,
2013-10-17 20:30:00,53.8,41.1,30.06,North,0,0.0,0.0,62,0.00,,OVC044,0.05,VWS V14.01,2013-10-18 00:30:00,
2013-10-17 20:35:00,53.6,40.9,30.06,North,0,0.0,0.0,62,0.00,,OVC044,0.05,VWS V14.01,2013-10-18 00:35:00,
2013-10-17 20:40:00,53.4,42.0,30.06,North,0,0.0,0.0,65,0.00,,OVC044,0.05,VWS V14.01,2013-10-18 00:40:00,
2013-10-17 20:45:00,53.2,41.8,30.06,North,0,0.0,0.0,65,0.00,,OVC044,0.05,VWS V14.01,2013-10-18 00:45:00,
2013-10-17 20:50:00,53.1,42.0,30.06,North,0,0.0,0.0,66,0.00,,OVC044,0.05,VWS V14.01,2013-10-18 00:50:00,
2013-10-17 20:55:00,53.1,42.4,30.06,North,0,0.0,0.0,67,0.00,,OVC044,0.05,VWS V14.01,2013-10-18 00:55:00,
2013-10-17 21:00:00,52.9,42.6,30.06,North,0,0.0,0.0,68,0.00,,OVC044,0.05,VWS V14.01,2013-10-18 01:00:00,
2013-10-17 21:05:00,52.7,42.5,30.06,North,0,0.0,0.0,68,0.00,,OVC044,0.05,VWS V14.01,2013-10-18 01:05:00,
2013-10-17 21:10:00,52.5,42.3,30.06,North,0,0.0,0.0,68,0.00,,OVC044,0.05,VWS V14.01,2013-10-18 01:10:00,
2013-10-17 21:15:00,52.3,42.9,30.06,North,0,0.0,0.0,70,0.00,,OVC044,0.05,VWS V14.01,2013-10-18 01:15:00,
2013-10-17 21:20:00,52.2,42.7,30.06,North,0,0.0,0.0,70,0.00,,OVC044,0.05,VWS V14.01,2013-10-18 01:20:00,
2013-10-17 21:25:00,52.2,42.7,30.06,North,0,0.0,0.0,70,0.00,,OVC044,0.05,VWS V14.01,2013-10-18 01:25:00,
2013-10-17 21:30:00,52.0,42.9,30.06,North,0,0.0,0.0,71,0.00,,OVC044,0.05,VWS V14.01,2013-10-18 01:30:00,
2013-10-17 21:35:00,51.8,42.7,30.06,North,0,0.0,0.0,71,0.00,,OVC044,0.05,VWS V14.01,2013-10-18 01:35:00,
2013-10-17 21:40:00,51.6,42.9,30.06,North,0,0.0,0.0,72,0.00,,OVC044,0.05,VWS V14.01,2013-10-18 01:40:00,
2013-10-17 21:45:00,51.6,43.3,30.06,North,0,0.0,0.0,73,0.00,,OVC044,0.05,VWS V14.01,2013-10-18 01:45:00,
2013-10-17 21:50:00,51.4,43.1,30.09,North,0,0.0,0.0,73,0.00,,OVC044,0.05,VWS V14.01,2013-10-18 01:50:00,
2013-10-17 21:55:00,51.3,43.3,30.09,North,0,0.0,0.0,74,0.00,,OVC044,0.05,VWS V14.01,2013-10-18 01:55:00,
2013-10-17 22:00:00,51.3,43.3,30.09,North,0,0.0,0.0,74,0.00,,OVC044,0.05,VWS V14.01,2013-10-18 02:00:00,
2013-10-17 22:05:00,51.1,43.4,30.09,North,0,0.0,0.0,75,0.00,,OVC044,0.05,VWS V14.01,2013-10-18 02:05:00,
2013-10-17 22:10:00,50.9,42.9,30.09,North,0,0.0,0.0,74,0.00,,OVC044,0.05,VWS V14.01,2013-10-18 02:10:00,
2013-10-17 22:15:00,50.9,43.3,30.09,North,0,0.0,0.0,75,0.00,,OVC044,0.05,VWS V14.01,2013-10-18 02:15:00,
2013-10-17 22:20:00,50.7,43.1,30.09,North,0,0.0,0.0,75,0.00,,OVC044,0.05,VWS V14.01,2013-10-18 02:20:00,
2013-10-17 22:25:00,50.5,43.3,30.09,North,0,0.0,0.0,76,0.00,,OVC044,0.05,VWS V14.01,2013-10-18 02:25:00,
2013-10-17 22:30:00,50.5,43.6,30.09,North,0,0.0,0.0,77,0.00,,OVC044,0.05,VWS V14.01,2013-10-18 02:30:00,
2013-10-17 22:35:00,50.4,43.1,30.09,North,0,0.0,0.0,76,0.00,,OVC044,0.05,VWS V14.01,2013-10-18 02:35:00,
2013-10-17 22:40:00,50.4,43.8,30.09,North,0,0.0,0.0,78,0.00,,OVC044,0.05,VWS V14.01,2013-10-18 02:40:00,
2013-10-17 22:45:00,50.2,43.6,30.09,North,0,0.0,0.0,78,0.00,,OVC044,0.05,VWS V14.01,2013-10-18 02:45:00,
2013-10-17 22:50:00,50.2,43.9,30.06,North,0,0.0,0.0,79,0.00,,OVC044,0.05,VWS V14.01,2013-10-18 02:50:00,
2013-10-17 22:55:00,50.0,43.1,30.06,North,0,0.0,0.0,77,0.00,,OVC044,0.05,VWS V14.01,2013-10-18 02:55:00,
2013-10-17 23:00:00,49.8,43.2,30.06,North,0,0.0,0.0,78,0.00,,OVC044,0.05,VWS V14.01,2013-10-18 03:00:00,
2013-10-17 23:05:00,49.8,43.6,30.09,North,0,0.0,0.0,79,0.00,,OVC044,0.05,VWS V14.01,2013-10-18 03:05:00,
2013-10-17 23:10:00,49.6,44.1,30.09,North,0,0.0,0.0,81,0.00,,OVC044,0.05,VWS V14.01,2013-10-18 03:10:00,
2013-10-17 23:15:00,49.6,44.4,30.09,North,0,0.0,0.0,82,0.00,,OVC044,0.05,VWS V14.01,2013-10-18 03:15:00,
2013-10-17 23:20:00,49.6,44.4,30.09,North,0,0.0,0.0,82,0.00,,OVC044,0.05,VWS V14.01,2013-10-18 03:20:00,
2013-10-17 23:25:00,49.5,43.6,30.09,North,0,0.0,0.0,80,0.00,,OVC044,0.05,VWS V14.01,2013-10-18 03:25:00,
2013-10-17 23:30:00,49.5,44.2,30.09,North,0,0.0,0.0,82,0.00,,OVC044,0.05,VWS V14.01,2013-10-18 03:30:00,
2013-10-17 23:35:00,49.5,44.2,30.09,North,0,0.0,0.0,82,0.00,,OVC044,0.05,VWS V14.01,2013-10-18 03:35:00,
2013-10-17 23:40:00,49.3,43.7,30.09,North,0,0.0,0.0,81,0.00,,OVC044,0.05,VWS V14.01,2013-10-18 03:40:00,
2013-10-17 23:45:00,49.1,43.8,30.09,North,0,0.0,0.0,82,0.00,,OVC044,0.05,VWS V14.01,2013-10-18 03:45:00,
2013-10-17 23:50:00,49.1,44.2,30.09,North,0,0.0,0.0,83,0.00,,OVC044,0.05,VWS V14.01,2013-10-18 03:50:00,
2013-10-17 23:55:00,49.1,44.2,30.09,North,0,0.0,0.0,83,0.00,,OVC044,0.05,VWS V14.01,2013-10-18 03:55:00,